sensor_id;sensor_type;location;lat;lon;timestamp;P1;durP1;ratioP1;P2;durP2;ratioP2
32705;SDS011;19094;50.972;3.538;2022-07-30T00:01:15;13.35;;;5.38;;
32705;SDS011;19094;50.972;3.538;2022-07-30T00:03:41;14.50;;;5.43;;
32705;SDS011;19094;50.972;3.538;2022-07-30T00:06:07;13.07;;;5.97;;
32705;SDS011;19094;50.972;3.538;2022-07-30T00:08:32;14.00;;;6.07;;
32705;SDS011;19094;50.972;3.538;2022-07-30T00:10:58;13.25;;;5.90;;
32705;SDS011;19094;50.972;3.538;2022-07-30T00:13:24;14.73;;;5.63;;
32705;SDS011;19094;50.972;3.538;2022-07-30T00:15:49;12.20;;;5.55;;
32705;SDS011;19094;50.972;3.538;2022-07-30T00:18:15;12.98;;;6.03;;
32705;SDS011;19094;50.972;3.538;2022-07-30T00:20:41;11.75;;;5.45;;
32705;SDS011;19094;50.972;3.538;2022-07-30T00:23:06;15.80;;;5.78;;
32705;SDS011;19094;50.972;3.538;2022-07-30T00:25:32;14.88;;;6.22;;
32705;SDS011;19094;50.972;3.538;2022-07-30T00:27:58;11.48;;;6.45;;
32705;SDS011;19094;50.972;3.538;2022-07-30T00:30:24;16.80;;;7.57;;
32705;SDS011;19094;50.972;3.538;2022-07-30T00:32:49;12.35;;;6.68;;
32705;SDS011;19094;50.972;3.538;2022-07-30T00:35:15;14.13;;;7.32;;
32705;SDS011;19094;50.972;3.538;2022-07-30T00:37:41;14.48;;;6.43;;
32705;SDS011;19094;50.972;3.538;2022-07-30T00:40:07;21.35;;;8.30;;
32705;SDS011;19094;50.972;3.538;2022-07-30T00:42:41;15.80;;;7.68;;
32705;SDS011;19094;50.972;3.538;2022-07-30T00:45:08;16.67;;;7.47;;
32705;SDS011;19094;50.972;3.538;2022-07-30T00:47:35;17.33;;;8.40;;
32705;SDS011;19094;50.972;3.538;2022-07-30T00:50:02;15.90;;;8.70;;
32705;SDS011;19094;50.972;3.538;2022-07-30T00:52:32;14.30;;;8.30;;
32705;SDS011;19094;50.972;3.538;2022-07-30T00:54:59;21.98;;;8.35;;
32705;SDS011;19094;50.972;3.538;2022-07-30T00:57:26;17.55;;;8.57;;
32705;SDS011;19094;50.972;3.538;2022-07-30T00:59:52;16.65;;;7.90;;
32705;SDS011;19094;50.972;3.538;2022-07-30T01:02:18;13.63;;;7.75;;
32705;SDS011;19094;50.972;3.538;2022-07-30T01:04:44;14.60;;;8.15;;
32705;SDS011;19094;50.972;3.538;2022-07-30T01:07:10;15.15;;;8.45;;
32705;SDS011;19094;50.972;3.538;2022-07-30T01:09:36;14.38;;;8.05;;
32705;SDS011;19094;50.972;3.538;2022-07-30T01:12:02;19.70;;;8.48;;
32705;SDS011;19094;50.972;3.538;2022-07-30T01:14:30;14.98;;;8.63;;
32705;SDS011;19094;50.972;3.538;2022-07-30T01:16:59;20.10;;;8.43;;
32705;SDS011;19094;50.972;3.538;2022-07-30T01:19:29;16.30;;;8.68;;
32705;SDS011;19094;50.972;3.538;2022-07-30T01:27:42;21.73;;;8.77;;
32705;SDS011;19094;50.972;3.538;2022-07-30T01:30:14;14.65;;;8.23;;
32705;SDS011;19094;50.972;3.538;2022-07-30T01:32:42;15.27;;;8.38;;
32705;SDS011;19094;50.972;3.538;2022-07-30T01:35:10;17.52;;;8.88;;
32705;SDS011;19094;50.972;3.538;2022-07-30T01:37:38;13.43;;;7.93;;
32705;SDS011;19094;50.972;3.538;2022-07-30T01:40:05;18.08;;;8.32;;
32705;SDS011;19094;50.972;3.538;2022-07-30T01:42:31;14.55;;;8.70;;
32705;SDS011;19094;50.972;3.538;2022-07-30T01:44:58;18.40;;;8.63;;
32705;SDS011;19094;50.972;3.538;2022-07-30T01:47:26;14.93;;;8.00;;
32705;SDS011;19094;50.972;3.538;2022-07-30T01:49:53;14.48;;;7.68;;
32705;SDS011;19094;50.972;3.538;2022-07-30T01:52:20;21.73;;;8.85;;
32705;SDS011;19094;50.972;3.538;2022-07-30T01:54:48;18.98;;;8.38;;
32705;SDS011;19094;50.972;3.538;2022-07-30T01:57:17;20.77;;;9.35;;
32705;SDS011;19094;50.972;3.538;2022-07-30T01:59:45;12.20;;;8.60;;
32705;SDS011;19094;50.972;3.538;2022-07-30T02:02:14;20.92;;;8.23;;
32705;SDS011;19094;50.972;3.538;2022-07-30T02:04:40;18.77;;;8.25;;
32705;SDS011;19094;50.972;3.538;2022-07-30T02:09:54;23.38;;;9.00;;
32705;SDS011;19094;50.972;3.538;2022-07-30T02:12:25;16.35;;;8.23;;
32705;SDS011;19094;50.972;3.538;2022-07-30T02:14:56;19.77;;;9.10;;
32705;SDS011;19094;50.972;3.538;2022-07-30T02:17:26;25.85;;;8.73;;
32705;SDS011;19094;50.972;3.538;2022-07-30T02:19:56;15.98;;;8.52;;
32705;SDS011;19094;50.972;3.538;2022-07-30T02:22:24;15.55;;;8.45;;
32705;SDS011;19094;50.972;3.538;2022-07-30T02:24:54;15.75;;;8.73;;
32705;SDS011;19094;50.972;3.538;2022-07-30T02:27:26;13.20;;;7.65;;
32705;SDS011;19094;50.972;3.538;2022-07-30T02:29:54;13.30;;;7.50;;
32705;SDS011;19094;50.972;3.538;2022-07-30T02:32:23;17.80;;;8.02;;
32705;SDS011;19094;50.972;3.538;2022-07-30T02:34:51;13.85;;;8.20;;
32705;SDS011;19094;50.972;3.538;2022-07-30T02:37:21;16.65;;;8.70;;
32705;SDS011;19094;50.972;3.538;2022-07-30T02:39:48;14.52;;;8.05;;
32705;SDS011;19094;50.972;3.538;2022-07-30T02:42:16;14.30;;;8.38;;
32705;SDS011;19094;50.972;3.538;2022-07-30T02:44:43;16.25;;;8.73;;
32705;SDS011;19094;50.972;3.538;2022-07-30T02:47:11;18.88;;;8.82;;
32705;SDS011;19094;50.972;3.538;2022-07-30T02:49:37;15.80;;;8.93;;
32705;SDS011;19094;50.972;3.538;2022-07-30T02:52:04;18.55;;;8.40;;
32705;SDS011;19094;50.972;3.538;2022-07-30T02:54:37;15.65;;;8.55;;
32705;SDS011;19094;50.972;3.538;2022-07-30T02:57:06;14.55;;;8.77;;
32705;SDS011;19094;50.972;3.538;2022-07-30T02:59:33;17.58;;;8.52;;
32705;SDS011;19094;50.972;3.538;2022-07-30T03:02:02;14.77;;;8.38;;
32705;SDS011;19094;50.972;3.538;2022-07-30T03:04:28;14.02;;;8.85;;
32705;SDS011;19094;50.972;3.538;2022-07-30T03:06:56;15.05;;;8.90;;
32705;SDS011;19094;50.972;3.538;2022-07-30T03:09:24;19.30;;;9.07;;
32705;SDS011;19094;50.972;3.538;2022-07-30T03:11:51;16.10;;;9.70;;
32705;SDS011;19094;50.972;3.538;2022-07-30T03:14:19;19.58;;;8.77;;
32705;SDS011;19094;50.972;3.538;2022-07-30T03:16:46;15.65;;;9.15;;
32705;SDS011;19094;50.972;3.538;2022-07-30T03:19:22;18.33;;;8.95;;
32705;SDS011;19094;50.972;3.538;2022-07-30T03:21:50;17.15;;;9.45;;
32705;SDS011;19094;50.972;3.538;2022-07-30T03:24:18;15.05;;;9.13;;
32705;SDS011;19094;50.972;3.538;2022-07-30T03:26:47;18.42;;;9.73;;
32705;SDS011;19094;50.972;3.538;2022-07-30T03:29:15;20.95;;;8.90;;
32705;SDS011;19094;50.972;3.538;2022-07-30T03:31:42;15.70;;;9.05;;
32705;SDS011;19094;50.972;3.538;2022-07-30T03:34:10;16.73;;;9.60;;
32705;SDS011;19094;50.972;3.538;2022-07-30T03:36:37;17.80;;;9.20;;
32705;SDS011;19094;50.972;3.538;2022-07-30T03:39:04;11.65;;;8.70;;
32705;SDS011;19094;50.972;3.538;2022-07-30T03:41:32;18.52;;;10.25;;
32705;SDS011;19094;50.972;3.538;2022-07-30T03:43:59;15.70;;;9.45;;
32705;SDS011;19094;50.972;3.538;2022-07-30T03:46:26;17.17;;;9.77;;
32705;SDS011;19094;50.972;3.538;2022-07-30T03:48:52;24.23;;;10.52;;
32705;SDS011;19094;50.972;3.538;2022-07-30T03:51:18;17.15;;;9.73;;
32705;SDS011;19094;50.972;3.538;2022-07-30T03:53:44;22.80;;;10.63;;
32705;SDS011;19094;50.972;3.538;2022-07-30T03:56:11;19.90;;;10.32;;
32705;SDS011;19094;50.972;3.538;2022-07-30T03:58:39;23.52;;;11.25;;
32705;SDS011;19094;50.972;3.538;2022-07-30T04:01:05;22.35;;;10.80;;
32705;SDS011;19094;50.972;3.538;2022-07-30T04:03:31;19.58;;;9.88;;
32705;SDS011;19094;50.972;3.538;2022-07-30T04:05:57;17.33;;;10.30;;
32705;SDS011;19094;50.972;3.538;2022-07-30T04:08:24;20.13;;;10.55;;
32705;SDS011;19094;50.972;3.538;2022-07-30T04:10:50;22.02;;;10.55;;
32705;SDS011;19094;50.972;3.538;2022-07-30T04:13:16;16.63;;;10.23;;
32705;SDS011;19094;50.972;3.538;2022-07-30T04:18:17;19.17;;;10.13;;
32705;SDS011;19094;50.972;3.538;2022-07-30T04:20:45;21.83;;;10.65;;
32705;SDS011;19094;50.972;3.538;2022-07-30T04:23:13;20.67;;;10.25;;
32705;SDS011;19094;50.972;3.538;2022-07-30T04:25:39;19.90;;;10.30;;
32705;SDS011;19094;50.972;3.538;2022-07-30T04:28:08;21.38;;;10.15;;
32705;SDS011;19094;50.972;3.538;2022-07-30T04:30:34;17.33;;;9.65;;
32705;SDS011;19094;50.972;3.538;2022-07-30T04:33:01;18.63;;;10.05;;
32705;SDS011;19094;50.972;3.538;2022-07-30T04:35:29;15.80;;;9.65;;
32705;SDS011;19094;50.972;3.538;2022-07-30T04:37:56;21.10;;;10.05;;
32705;SDS011;19094;50.972;3.538;2022-07-30T04:40:22;16.52;;;9.68;;
32705;SDS011;19094;50.972;3.538;2022-07-30T04:42:48;21.25;;;10.55;;
32705;SDS011;19094;50.972;3.538;2022-07-30T04:45:13;18.98;;;10.25;;
32705;SDS011;19094;50.972;3.538;2022-07-30T04:47:39;21.90;;;10.55;;
32705;SDS011;19094;50.972;3.538;2022-07-30T04:50:05;19.30;;;10.32;;
32705;SDS011;19094;50.972;3.538;2022-07-30T04:52:33;15.63;;;10.98;;
32705;SDS011;19094;50.972;3.538;2022-07-30T04:55:03;21.05;;;10.50;;
32705;SDS011;19094;50.972;3.538;2022-07-30T04:57:31;19.88;;;11.18;;
32705;SDS011;19094;50.972;3.538;2022-07-30T04:59:58;19.73;;;11.55;;
32705;SDS011;19094;50.972;3.538;2022-07-30T05:02:24;18.20;;;10.98;;
32705;SDS011;19094;50.972;3.538;2022-07-30T05:04:53;19.88;;;11.30;;
32705;SDS011;19094;50.972;3.538;2022-07-30T05:07:20;23.02;;;11.80;;
32705;SDS011;19094;50.972;3.538;2022-07-30T05:09:47;21.40;;;11.52;;
32705;SDS011;19094;50.972;3.538;2022-07-30T05:12:12;17.95;;;11.93;;
32705;SDS011;19094;50.972;3.538;2022-07-30T05:14:38;22.42;;;12.00;;
32705;SDS011;19094;50.972;3.538;2022-07-30T05:17:04;20.88;;;12.02;;
32705;SDS011;19094;50.972;3.538;2022-07-30T05:19:30;16.33;;;11.88;;
32705;SDS011;19094;50.972;3.538;2022-07-30T05:21:56;24.48;;;14.18;;
32705;SDS011;19094;50.972;3.538;2022-07-30T05:24:22;26.48;;;12.07;;
32705;SDS011;19094;50.972;3.538;2022-07-30T05:26:47;21.60;;;12.88;;
32705;SDS011;19094;50.972;3.538;2022-07-30T05:29:13;20.55;;;12.68;;
32705;SDS011;19094;50.972;3.538;2022-07-30T05:31:39;25.17;;;13.23;;
32705;SDS011;19094;50.972;3.538;2022-07-30T05:34:04;20.38;;;13.05;;
32705;SDS011;19094;50.972;3.538;2022-07-30T05:36:30;22.75;;;13.07;;
32705;SDS011;19094;50.972;3.538;2022-07-30T05:38:56;25.73;;;13.77;;
32705;SDS011;19094;50.972;3.538;2022-07-30T05:41:22;18.90;;;12.68;;
32705;SDS011;19094;50.972;3.538;2022-07-30T05:43:47;21.23;;;13.00;;
32705;SDS011;19094;50.972;3.538;2022-07-30T05:46:13;30.95;;;14.40;;
32705;SDS011;19094;50.972;3.538;2022-07-30T05:48:38;23.15;;;14.27;;
32705;SDS011;19094;50.972;3.538;2022-07-30T05:51:04;31.92;;;14.23;;
32705;SDS011;19094;50.972;3.538;2022-07-30T05:53:30;20.67;;;13.38;;
32705;SDS011;19094;50.972;3.538;2022-07-30T05:55:56;27.65;;;13.10;;
32705;SDS011;19094;50.972;3.538;2022-07-30T05:58:22;27.58;;;13.15;;
32705;SDS011;19094;50.972;3.538;2022-07-30T06:00:48;21.20;;;12.57;;
32705;SDS011;19094;50.972;3.538;2022-07-30T06:03:13;29.00;;;13.90;;
32705;SDS011;19094;50.972;3.538;2022-07-30T06:05:39;22.98;;;13.43;;
32705;SDS011;19094;50.972;3.538;2022-07-30T06:08:05;20.52;;;12.00;;
32705;SDS011;19094;50.972;3.538;2022-07-30T06:10:30;20.83;;;11.88;;
32705;SDS011;19094;50.972;3.538;2022-07-30T06:12:56;19.42;;;11.70;;
32705;SDS011;19094;50.972;3.538;2022-07-30T06:15:22;18.55;;;9.85;;
32705;SDS011;19094;50.972;3.538;2022-07-30T06:17:48;21.00;;;10.70;;
32705;SDS011;19094;50.972;3.538;2022-07-30T06:20:14;19.00;;;10.93;;
32705;SDS011;19094;50.972;3.538;2022-07-30T06:22:41;16.25;;;10.02;;
32705;SDS011;19094;50.972;3.538;2022-07-30T06:25:07;18.23;;;9.02;;
32705;SDS011;19094;50.972;3.538;2022-07-30T06:27:33;19.52;;;9.80;;
32705;SDS011;19094;50.972;3.538;2022-07-30T06:30:00;18.00;;;9.63;;
32705;SDS011;19094;50.972;3.538;2022-07-30T06:32:27;21.13;;;9.38;;
32705;SDS011;19094;50.972;3.538;2022-07-30T06:34:53;21.10;;;9.75;;
32705;SDS011;19094;50.972;3.538;2022-07-30T06:37:18;23.17;;;9.98;;
32705;SDS011;19094;50.972;3.538;2022-07-30T06:39:44;18.65;;;9.75;;
32705;SDS011;19094;50.972;3.538;2022-07-30T06:42:10;27.67;;;11.63;;
32705;SDS011;19094;50.972;3.538;2022-07-30T06:44:35;24.05;;;11.25;;
32705;SDS011;19094;50.972;3.538;2022-07-30T06:47:01;26.45;;;11.48;;
32705;SDS011;19094;50.972;3.538;2022-07-30T06:49:27;26.55;;;11.38;;
32705;SDS011;19094;50.972;3.538;2022-07-30T06:51:55;20.10;;;10.98;;
32705;SDS011;19094;50.972;3.538;2022-07-30T06:54:20;20.08;;;10.48;;
32705;SDS011;19094;50.972;3.538;2022-07-30T06:56:46;19.70;;;11.15;;
32705;SDS011;19094;50.972;3.538;2022-07-30T06:59:11;22.20;;;11.15;;
32705;SDS011;19094;50.972;3.538;2022-07-30T07:01:37;19.95;;;10.00;;
32705;SDS011;19094;50.972;3.538;2022-07-30T07:04:03;17.50;;;9.98;;
32705;SDS011;19094;50.972;3.538;2022-07-30T07:06:28;18.48;;;10.70;;
32705;SDS011;19094;50.972;3.538;2022-07-30T07:08:54;23.73;;;10.30;;
32705;SDS011;19094;50.972;3.538;2022-07-30T07:11:20;16.83;;;10.05;;
32705;SDS011;19094;50.972;3.538;2022-07-30T07:13:45;16.85;;;8.82;;
32705;SDS011;19094;50.972;3.538;2022-07-30T07:16:11;17.73;;;8.57;;
32705;SDS011;19094;50.972;3.538;2022-07-30T07:18:37;14.45;;;7.05;;
32705;SDS011;19094;50.972;3.538;2022-07-30T07:21:02;12.60;;;6.53;;
32705;SDS011;19094;50.972;3.538;2022-07-30T07:23:28;11.55;;;6.47;;
32705;SDS011;19094;50.972;3.538;2022-07-30T07:25:54;11.90;;;6.30;;
32705;SDS011;19094;50.972;3.538;2022-07-30T07:28:20;12.07;;;5.03;;
32705;SDS011;19094;50.972;3.538;2022-07-30T07:30:46;12.27;;;5.90;;
32705;SDS011;19094;50.972;3.538;2022-07-30T07:33:11;11.82;;;4.75;;
32705;SDS011;19094;50.972;3.538;2022-07-30T07:35:37;9.05;;;4.05;;
32705;SDS011;19094;50.972;3.538;2022-07-30T07:38:03;18.88;;;8.48;;
32705;SDS011;19094;50.972;3.538;2022-07-30T07:40:28;19.52;;;6.45;;
32705;SDS011;19094;50.972;3.538;2022-07-30T07:42:54;15.38;;;6.93;;
32705;SDS011;19094;50.972;3.538;2022-07-30T07:45:20;21.40;;;8.40;;
32705;SDS011;19094;50.972;3.538;2022-07-30T07:47:46;16.10;;;6.75;;
32705;SDS011;19094;50.972;3.538;2022-07-30T07:50:16;8.50;;;4.72;;
32705;SDS011;19094;50.972;3.538;2022-07-30T07:52:43;12.00;;;6.07;;
32705;SDS011;19094;50.972;3.538;2022-07-30T07:55:09;11.02;;;5.50;;
32705;SDS011;19094;50.972;3.538;2022-07-30T07:57:42;13.10;;;5.38;;
32705;SDS011;19094;50.972;3.538;2022-07-30T08:00:10;12.65;;;4.28;;
32705;SDS011;19094;50.972;3.538;2022-07-30T08:02:37;11.48;;;4.78;;
32705;SDS011;19094;50.972;3.538;2022-07-30T08:05:03;9.00;;;4.05;;
32705;SDS011;19094;50.972;3.538;2022-07-30T08:07:30;9.70;;;3.75;;
32705;SDS011;19094;50.972;3.538;2022-07-30T08:09:56;7.07;;;3.40;;
32705;SDS011;19094;50.972;3.538;2022-07-30T08:12:22;6.35;;;2.97;;
32705;SDS011;19094;50.972;3.538;2022-07-30T08:14:47;6.43;;;2.97;;
32705;SDS011;19094;50.972;3.538;2022-07-30T08:17:13;9.27;;;2.58;;
32705;SDS011;19094;50.972;3.538;2022-07-30T08:19:40;3.47;;;1.70;;
32705;SDS011;19094;50.972;3.538;2022-07-30T08:22:06;5.68;;;1.90;;
32705;SDS011;19094;50.972;3.538;2022-07-30T08:24:31;5.15;;;2.10;;
32705;SDS011;19094;50.972;3.538;2022-07-30T08:26:57;9.38;;;2.92;;
32705;SDS011;19094;50.972;3.538;2022-07-30T08:29:23;7.15;;;3.20;;
32705;SDS011;19094;50.972;3.538;2022-07-30T08:31:48;8.70;;;3.20;;
32705;SDS011;19094;50.972;3.538;2022-07-30T08:34:14;11.27;;;2.65;;
32705;SDS011;19094;50.972;3.538;2022-07-30T08:36:40;7.60;;;2.40;;
32705;SDS011;19094;50.972;3.538;2022-07-30T08:39:06;10.68;;;2.38;;
32705;SDS011;19094;50.972;3.538;2022-07-30T08:41:32;9.80;;;3.20;;
32705;SDS011;19094;50.972;3.538;2022-07-30T08:44:02;5.55;;;2.28;;
32705;SDS011;19094;50.972;3.538;2022-07-30T08:46:33;9.45;;;2.83;;
32705;SDS011;19094;50.972;3.538;2022-07-30T08:49:00;5.55;;;2.30;;
32705;SDS011;19094;50.972;3.538;2022-07-30T08:51:26;12.98;;;2.42;;
32705;SDS011;19094;50.972;3.538;2022-07-30T08:53:52;6.18;;;2.35;;
32705;SDS011;19094;50.972;3.538;2022-07-30T08:56:20;4.68;;;1.98;;
32705;SDS011;19094;50.972;3.538;2022-07-30T08:58:46;7.55;;;2.15;;
32705;SDS011;19094;50.972;3.538;2022-07-30T09:01:11;9.63;;;2.00;;
32705;SDS011;19094;50.972;3.538;2022-07-30T09:03:37;9.73;;;2.20;;
32705;SDS011;19094;50.972;3.538;2022-07-30T09:06:03;7.80;;;2.22;;
32705;SDS011;19094;50.972;3.538;2022-07-30T09:08:29;4.75;;;2.13;;
32705;SDS011;19094;50.972;3.538;2022-07-30T09:10:55;6.70;;;2.13;;
32705;SDS011;19094;50.972;3.538;2022-07-30T09:13:25;4.75;;;2.22;;
32705;SDS011;19094;50.972;3.538;2022-07-30T09:15:56;4.93;;;2.67;;
32705;SDS011;19094;50.972;3.538;2022-07-30T09:18:26;5.40;;;2.13;;
32705;SDS011;19094;50.972;3.538;2022-07-30T09:20:54;4.80;;;2.60;;
32705;SDS011;19094;50.972;3.538;2022-07-30T09:23:20;6.50;;;2.85;;
32705;SDS011;19094;50.972;3.538;2022-07-30T09:25:46;7.63;;;2.97;;
32705;SDS011;19094;50.972;3.538;2022-07-30T09:28:13;3.78;;;2.25;;
32705;SDS011;19094;50.972;3.538;2022-07-30T09:30:52;5.22;;;2.13;;
32705;SDS011;19094;50.972;3.538;2022-07-30T09:36:03;7.70;;;2.60;;
32705;SDS011;19094;50.972;3.538;2022-07-30T09:38:40;4.75;;;2.35;;
32705;SDS011;19094;50.972;3.538;2022-07-30T09:41:09;5.70;;;2.88;;
32705;SDS011;19094;50.972;3.538;2022-07-30T09:46:44;9.40;;;2.88;;
32705;SDS011;19094;50.972;3.538;2022-07-30T09:49:15;10.88;;;4.20;;
32705;SDS011;19094;50.972;3.538;2022-07-30T09:51:42;8.60;;;3.30;;
32705;SDS011;19094;50.972;3.538;2022-07-30T09:54:07;18.38;;;3.70;;
32705;SDS011;19094;50.972;3.538;2022-07-30T09:56:33;5.68;;;3.22;;
32705;SDS011;19094;50.972;3.538;2022-07-30T09:58:59;7.53;;;2.63;;
32705;SDS011;19094;50.972;3.538;2022-07-30T10:01:26;6.55;;;2.80;;
32705;SDS011;19094;50.972;3.538;2022-07-30T10:03:52;9.00;;;3.10;;
32705;SDS011;19094;50.972;3.538;2022-07-30T10:06:30;5.75;;;2.67;;
32705;SDS011;19094;50.972;3.538;2022-07-30T10:08:56;7.07;;;2.83;;
32705;SDS011;19094;50.972;3.538;2022-07-30T10:11:23;6.45;;;2.85;;
32705;SDS011;19094;50.972;3.538;2022-07-30T10:13:52;9.05;;;2.60;;
32705;SDS011;19094;50.972;3.538;2022-07-30T10:16:19;6.22;;;2.95;;
32705;SDS011;19094;50.972;3.538;2022-07-30T10:18:44;5.90;;;2.80;;
32705;SDS011;19094;50.972;3.538;2022-07-30T10:21:11;8.88;;;3.13;;
32705;SDS011;19094;50.972;3.538;2022-07-30T10:23:37;5.13;;;2.38;;
32705;SDS011;19094;50.972;3.538;2022-07-30T10:26:04;4.50;;;2.72;;
32705;SDS011;19094;50.972;3.538;2022-07-30T10:28:32;7.82;;;2.60;;
32705;SDS011;19094;50.972;3.538;2022-07-30T10:30:58;7.15;;;2.20;;
32705;SDS011;19094;50.972;3.538;2022-07-30T10:33:25;4.28;;;1.70;;
32705;SDS011;19094;50.972;3.538;2022-07-30T10:35:52;8.75;;;2.75;;
32705;SDS011;19094;50.972;3.538;2022-07-30T10:38:20;5.93;;;2.30;;
32705;SDS011;19094;50.972;3.538;2022-07-30T10:40:51;8.38;;;2.20;;
32705;SDS011;19094;50.972;3.538;2022-07-30T10:48:53;5.13;;;2.08;;
32705;SDS011;19094;50.972;3.538;2022-07-30T10:51:20;6.20;;;1.80;;
32705;SDS011;19094;50.972;3.538;2022-07-30T10:53:46;2.92;;;1.90;;
32705;SDS011;19094;50.972;3.538;2022-07-30T10:56:22;8.13;;;2.17;;
32705;SDS011;19094;50.972;3.538;2022-07-30T10:59:03;4.72;;;2.25;;
32705;SDS011;19094;50.972;3.538;2022-07-30T11:04:20;3.58;;;2.00;;
32705;SDS011;19094;50.972;3.538;2022-07-30T11:06:50;4.32;;;2.55;;
32705;SDS011;19094;50.972;3.538;2022-07-30T11:12:03;6.20;;;2.45;;
32705;SDS011;19094;50.972;3.538;2022-07-30T11:17:19;5.68;;;1.85;;
32705;SDS011;19094;50.972;3.538;2022-07-30T11:22:34;7.18;;;1.85;;
32705;SDS011;19094;50.972;3.538;2022-07-30T11:32:46;8.15;;;1.90;;
32705;SDS011;19094;50.972;3.538;2022-07-30T11:35:26;2.88;;;1.88;;
32705;SDS011;19094;50.972;3.538;2022-07-30T11:37:56;5.70;;;2.22;;
32705;SDS011;19094;50.972;3.538;2022-07-30T11:40:24;3.92;;;2.00;;
32705;SDS011;19094;50.972;3.538;2022-07-30T11:43:13;5.22;;;2.03;;
32705;SDS011;19094;50.972;3.538;2022-07-30T11:45:40;4.72;;;2.00;;
32705;SDS011;19094;50.972;3.538;2022-07-30T11:48:10;6.47;;;1.90;;
32705;SDS011;19094;50.972;3.538;2022-07-30T11:50:37;4.55;;;1.85;;
32705;SDS011;19094;50.972;3.538;2022-07-30T11:53:09;2.50;;;1.48;;
32705;SDS011;19094;50.972;3.538;2022-07-30T11:55:44;7.40;;;1.77;;
32705;SDS011;19094;50.972;3.538;2022-07-30T12:01:03;3.45;;;1.77;;
32705;SDS011;19094;50.972;3.538;2022-07-30T12:03:40;8.10;;;1.88;;
32705;SDS011;19094;50.972;3.538;2022-07-30T12:06:08;5.32;;;2.00;;
32705;SDS011;19094;50.972;3.538;2022-07-30T12:08:43;7.82;;;1.77;;
32705;SDS011;19094;50.972;3.538;2022-07-30T12:13:42;3.42;;;1.90;;
32705;SDS011;19094;50.972;3.538;2022-07-30T12:16:09;6.57;;;1.92;;
32705;SDS011;19094;50.972;3.538;2022-07-30T12:18:36;4.28;;;1.88;;
32705;SDS011;19094;50.972;3.538;2022-07-30T12:21:07;17.65;;;2.95;;
32705;SDS011;19094;50.972;3.538;2022-07-30T12:23:36;4.40;;;1.95;;
32705;SDS011;19094;50.972;3.538;2022-07-30T12:26:03;4.32;;;1.95;;
32705;SDS011;19094;50.972;3.538;2022-07-30T12:28:32;4.82;;;2.03;;
32705;SDS011;19094;50.972;3.538;2022-07-30T12:30:59;3.78;;;1.80;;
32705;SDS011;19094;50.972;3.538;2022-07-30T12:33:28;6.68;;;2.60;;
32705;SDS011;19094;50.972;3.538;2022-07-30T12:38:22;3.35;;;1.58;;
32705;SDS011;19094;50.972;3.538;2022-07-30T12:41:04;6.25;;;1.90;;
32705;SDS011;19094;50.972;3.538;2022-07-30T12:43:51;11.05;;;1.83;;
32705;SDS011;19094;50.972;3.538;2022-07-30T12:46:25;7.20;;;2.40;;
32705;SDS011;19094;50.972;3.538;2022-07-30T12:48:59;4.90;;;1.83;;
32705;SDS011;19094;50.972;3.538;2022-07-30T12:51:27;4.63;;;1.77;;
32705;SDS011;19094;50.972;3.538;2022-07-30T12:53:56;5.22;;;1.80;;
32705;SDS011;19094;50.972;3.538;2022-07-30T12:56:32;3.85;;;2.00;;
32705;SDS011;19094;50.972;3.538;2022-07-30T12:58:58;5.05;;;2.28;;
32705;SDS011;19094;50.972;3.538;2022-07-30T13:01:43;8.63;;;2.13;;
32705;SDS011;19094;50.972;3.538;2022-07-30T13:04:11;8.48;;;1.77;;
32705;SDS011;19094;50.972;3.538;2022-07-30T13:06:38;5.43;;;1.80;;
32705;SDS011;19094;50.972;3.538;2022-07-30T13:09:06;8.77;;;2.05;;
32705;SDS011;19094;50.972;3.538;2022-07-30T13:11:42;6.40;;;2.20;;
32705;SDS011;19094;50.972;3.538;2022-07-30T13:14:10;4.93;;;2.33;;
32705;SDS011;19094;50.972;3.538;2022-07-30T13:16:40;2.72;;;1.58;;
32705;SDS011;19094;50.972;3.538;2022-07-30T13:19:07;9.20;;;2.13;;
32705;SDS011;19094;50.972;3.538;2022-07-30T13:21:40;3.55;;;1.75;;
32705;SDS011;19094;50.972;3.538;2022-07-30T13:24:07;5.07;;;2.88;;
32705;SDS011;19094;50.972;3.538;2022-07-30T13:26:33;3.45;;;2.22;;
32705;SDS011;19094;50.972;3.538;2022-07-30T13:29:00;3.55;;;1.65;;
32705;SDS011;19094;50.972;3.538;2022-07-30T13:31:27;6.32;;;2.00;;
32705;SDS011;19094;50.972;3.538;2022-07-30T13:33:52;7.95;;;1.98;;
32705;SDS011;19094;50.972;3.538;2022-07-30T13:36:18;5.25;;;1.83;;
32705;SDS011;19094;50.972;3.538;2022-07-30T13:38:44;4.68;;;2.00;;
32705;SDS011;19094;50.972;3.538;2022-07-30T13:41:10;4.63;;;2.40;;
32705;SDS011;19094;50.972;3.538;2022-07-30T13:43:36;2.10;;;1.73;;
32705;SDS011;19094;50.972;3.538;2022-07-30T13:46:02;3.63;;;2.03;;
32705;SDS011;19094;50.972;3.538;2022-07-30T13:48:29;4.57;;;2.00;;
32705;SDS011;19094;50.972;3.538;2022-07-30T13:50:55;5.50;;;2.15;;
32705;SDS011;19094;50.972;3.538;2022-07-30T13:53:21;3.67;;;1.83;;
32705;SDS011;19094;50.972;3.538;2022-07-30T13:55:47;4.18;;;2.10;;
32705;SDS011;19094;50.972;3.538;2022-07-30T13:58:12;5.57;;;2.00;;
32705;SDS011;19094;50.972;3.538;2022-07-30T14:00:38;10.40;;;2.13;;
32705;SDS011;19094;50.972;3.538;2022-07-30T14:03:06;3.80;;;2.10;;
32705;SDS011;19094;50.972;3.538;2022-07-30T14:05:33;3.67;;;2.17;;
32705;SDS011;19094;50.972;3.538;2022-07-30T14:08:00;5.80;;;1.83;;
32705;SDS011;19094;50.972;3.538;2022-07-30T14:10:27;3.42;;;2.20;;
32705;SDS011;19094;50.972;3.538;2022-07-30T14:12:54;4.43;;;1.95;;
32705;SDS011;19094;50.972;3.538;2022-07-30T14:15:20;3.53;;;2.03;;
32705;SDS011;19094;50.972;3.538;2022-07-30T14:17:49;4.82;;;2.15;;
32705;SDS011;19094;50.972;3.538;2022-07-30T14:20:16;2.50;;;2.00;;
32705;SDS011;19094;50.972;3.538;2022-07-30T14:22:42;12.80;;;2.55;;
32705;SDS011;19094;50.972;3.538;2022-07-30T14:25:08;3.22;;;1.75;;
32705;SDS011;19094;50.972;3.538;2022-07-30T14:27:34;4.32;;;2.10;;
32705;SDS011;19094;50.972;3.538;2022-07-30T14:30:01;5.43;;;2.10;;
32705;SDS011;19094;50.972;3.538;2022-07-30T14:32:28;2.38;;;1.90;;
32705;SDS011;19094;50.972;3.538;2022-07-30T14:34:54;3.33;;;2.15;;
32705;SDS011;19094;50.972;3.538;2022-07-30T14:37:19;4.38;;;2.50;;
32705;SDS011;19094;50.972;3.538;2022-07-30T14:39:45;5.20;;;2.15;;
32705;SDS011;19094;50.972;3.538;2022-07-30T14:42:11;4.40;;;2.03;;
32705;SDS011;19094;50.972;3.538;2022-07-30T14:44:36;2.90;;;2.22;;
32705;SDS011;19094;50.972;3.538;2022-07-30T14:47:02;4.60;;;1.92;;
32705;SDS011;19094;50.972;3.538;2022-07-30T14:49:28;4.63;;;2.28;;
32705;SDS011;19094;50.972;3.538;2022-07-30T14:51:54;6.93;;;2.33;;
32705;SDS011;19094;50.972;3.538;2022-07-30T14:54:20;5.82;;;2.20;;
32705;SDS011;19094;50.972;3.538;2022-07-30T14:56:46;5.60;;;2.10;;
32705;SDS011;19094;50.972;3.538;2022-07-30T14:59:12;3.53;;;2.00;;
32705;SDS011;19094;50.972;3.538;2022-07-30T15:01:38;6.82;;;2.22;;
32705;SDS011;19094;50.972;3.538;2022-07-30T15:04:05;3.53;;;1.98;;
32705;SDS011;19094;50.972;3.538;2022-07-30T15:06:33;4.85;;;2.10;;
32705;SDS011;19094;50.972;3.538;2022-07-30T15:09:00;4.35;;;2.00;;
32705;SDS011;19094;50.972;3.538;2022-07-30T15:11:26;2.95;;;2.13;;
32705;SDS011;19094;50.972;3.538;2022-07-30T15:13:52;4.35;;;2.05;;
32705;SDS011;19094;50.972;3.538;2022-07-30T15:16:17;5.43;;;2.10;;
32705;SDS011;19094;50.972;3.538;2022-07-30T15:18:44;6.25;;;2.33;;
32705;SDS011;19094;50.972;3.538;2022-07-30T15:21:09;7.28;;;2.10;;
32705;SDS011;19094;50.972;3.538;2022-07-30T15:23:36;5.50;;;2.10;;
32705;SDS011;19094;50.972;3.538;2022-07-30T15:26:02;8.30;;;2.70;;
32705;SDS011;19094;50.972;3.538;2022-07-30T15:28:28;10.13;;;2.63;;